Time;durP1;ratioP1;P1;durP2;ratioP2;P2;SDS_P1;SDS_P2;PMS_P1;PMS_P2;Temp;Humidity;BMP_temperature;BMP_pressure;BME280_temperature;BME280_humidity;BME280_pressure;Samples;Min_cycle;Max_cycle;Signal;HPM_P1;HPM_P2
2023/04/27 00:01:11;;;;;;;6.33;4.63;;;9.20;91.70;;;;;;4955996;29;20443;-95
2023/04/27 00:03:38;;;;;;;7.55;4.78;;;9.20;91.90;;;;;;4956284;29;20434;-96
2023/04/27 00:06:04;;;;;;;9.02;5.10;;;9.10;92.30;;;;;;4962773;29;20203;-96
2023/04/27 00:08:30;;;;;;;7.57;4.20;;;9.10;92.30;;;;;;4958562;29;20208;-96
2023/04/27 00:10:56;;;;;;;4.22;3.83;;;9.10;92.00;;;;;;4962085;29;20213;-96
2023/04/27 00:13:23;;;;;;;9.10;4.77;;;9.10;92.10;;;;;;4962375;29;20552;-96
2023/04/27 00:15:49;;;;;;;5.32;4.82;;;9.10;92.00;;;;;;4959946;29;20495;-96
2023/04/27 00:18:18;;;;;;;6.97;5.05;;;9.10;92.30;;;;;;4957449;29;20181;-95
2023/04/27 00:20:44;;;;;;;6.68;4.72;;;9.10;92.10;;;;;;4965542;29;20243;-96
2023/04/27 00:23:11;;;;;;;5.20;4.47;;;9.00;92.40;;;;;;4973797;29;20169;-95
2023/04/27 00:25:37;;;;;;;6.45;4.75;;;9.00;92.70;;;;;;4965079;28;20586;-96
2023/04/27 00:28:03;;;;;;;6.68;4.63;;;8.90;92.50;;;;;;4956212;29;20185;-96
2023/04/27 00:30:28;;;;;;;7.03;5.07;;;8.90;92.60;;;;;;4956145;29;20717;-96
2023/04/27 00:32:55;;;;;;;5.90;5.10;;;9.00;92.60;;;;;;4959238;29;20598;-96
2023/04/27 00:35:20;;;;;;;7.95;4.97;;;8.90;92.60;;;;;;4957552;29;20213;-94
2023/04/27 00:37:46;;;;;;;7.17;4.50;;;8.90;92.50;;;;;;4955447;29;20192;-95
2023/04/27 00:40:12;;;;;;;6.63;4.40;;;8.80;92.70;;;;;;4955562;29;20455;-96
2023/04/27 00:42:38;;;;;;;13.00;5.68;;;8.70;92.90;;;;;;4961184;28;20209;-94
2023/04/27 00:45:05;;;;;;;5.33;4.83;;;8.80;92.80;;;;;;4959388;29;20219;-96
2023/04/27 00:47:31;;;;;;;6.40;4.93;;;8.80;93.00;;;;;;4955900;29;20181;-95
2023/04/27 00:49:57;;;;;;;7.32;5.30;;;8.80;92.80;;;;;;4955506;29;20236;-95
2023/04/27 00:52:24;;;;;;;4.90;4.50;;;8.80;93.20;;;;;;4963548;28;20505;-95
2023/04/27 00:54:51;;;;;;;6.47;5.35;;;8.70;93.20;;;;;;4960986;29;20461;-96
2023/04/27 00:57:17;;;;;;;7.75;5.50;;;8.70;93.40;;;;;;4965023;29;20177;-96
2023/04/27 00:59:43;;;;;;;6.68;5.10;;;8.60;93.50;;;;;;4961387;29;20209;-95
2023/04/27 01:02:10;;;;;;;6.90;5.20;;;8.50;93.20;;;;;;4960102;29;20232;-96
2023/04/27 01:04:36;;;;;;;8.52;6.10;;;8.50;93.00;;;;;;4959377;29;20260;-95
2023/04/27 01:07:02;;;;;;;8.20;4.90;;;8.50;93.00;;;;;;4959843;29;20180;-96
2023/04/27 01:09:29;;;;;;;7.10;5.32;;;8.40;92.90;;;;;;4966496;29;20276;-96
2023/04/27 01:11:57;;;;;;;5.53;5.03;;;8.30;93.50;;;;;;4959324;29;20216;-96
2023/04/27 01:14:22;;;;;;;13.88;5.80;;;8.30;93.00;;;;;;4963653;29;20186;-96
2023/04/27 01:16:48;;;;;;;4.73;4.33;;;8.30;93.50;;;;;;4960835;29;20180;-94
2023/04/27 01:19:14;;;;;;;8.00;5.10;;;8.20;93.20;;;;;;4964639;29;20200;-95
2023/04/27 01:21:43;;;;;;;5.87;5.00;;;8.20;93.50;;;;;;4959502;29;20916;-95
2023/04/27 01:24:09;;;;;;;6.65;6.00;;;8.20;93.40;;;;;;4965886;29;20181;-96
2023/04/27 01:26:35;;;;;;;5.38;4.88;;;8.20;93.70;;;;;;4958865;29;20605;-96
2023/04/27 01:29:01;;;;;;;8.73;6.30;;;8.20;93.70;;;;;;4958916;29;20208;-95
2023/04/27 01:31:26;;;;;;;5.73;5.13;;;8.20;93.90;;;;;;4959044;29;20479;-96
2023/04/27 01:33:53;;;;;;;5.70;4.57;;;8.20;93.90;;;;;;4968433;28;20540;-96
2023/04/27 01:36:18;;;;;;;6.40;4.80;;;8.20;94.10;;;;;;4959113;29;20471;-95
2023/04/27 01:38:44;;;;;;;6.77;5.53;;;8.20;94.00;;;;;;4958810;29;20602;-95
2023/04/27 01:41:10;;;;;;;7.87;4.87;;;8.20;93.70;;;;;;4968041;29;20201;-96
2023/04/27 01:43:36;;;;;;;7.07;5.25;;;8.10;93.60;;;;;;4963812;29;20427;-96
2023/04/27 01:46:10;;;;;;;8.23;4.90;;;8.10;94.00;;;;;;4962861;29;20220;-96
2023/04/27 01:48:36;;;;;;;6.72;5.10;;;8.10;94.00;;;;;;4966161;29;20177;-96
2023/04/27 01:51:02;;;;;;;9.90;5.43;;;8.10;94.00;;;;;;4958854;29;20217;-96
2023/04/27 01:53:28;;;;;;;6.27;5.20;;;8.10;94.00;;;;;;4958825;29;20231;-95
2023/04/27 01:55:54;;;;;;;8.73;6.05;;;8.00;94.20;;;;;;4958200;29;20436;-96
2023/04/27 01:58:20;;;;;;;9.50;4.80;;;8.00;94.30;;;;;;4962780;29;20714;-96
2023/04/27 02:00:46;;;;;;;5.93;5.43;;;8.00;94.30;;;;;;4958363;29;20462;-96
2023/04/27 02:03:12;;;;;;;6.37;5.40;;;8.00;94.50;;;;;;4970781;28;20482;-96
2023/04/27 02:05:38;;;;;;;6.70;5.10;;;7.90;94.50;;;;;;4966360;29;20216;-96
2023/04/27 02:08:04;;;;;;;6.53;5.22;;;7.90;94.60;;;;;;4962471;29;20536;-95
2023/04/27 02:10:30;;;;;;;9.00;5.55;;;8.00;94.80;;;;;;4958618;29;20205;-96
2023/04/27 02:12:56;;;;;;;6.87;5.50;;;8.00;94.70;;;;;;4958433;29;20495;-96
2023/04/27 02:15:22;;;;;;;6.95;5.70;;;7.90;94.70;;;;;;4959510;29;20526;-95
2023/04/27 02:17:48;;;;;;;6.85;5.25;;;7.90;95.00;;;;;;4965403;29;20363;-96
2023/04/27 02:20:14;;;;;;;7.88;6.68;;;7.80;95.20;;;;;;4959397;29;20300;-95
2023/04/27 02:22:43;;;;;;;7.57;5.30;;;7.80;95.00;;;;;;4960920;29;20232;-95
2023/04/27 02:25:10;;;;;;;5.95;5.45;;;7.80;94.80;;;;;;4960022;29;20440;-96
2023/04/27 02:27:37;;;;;;;6.20;5.50;;;7.80;94.70;;;;;;4958211;29;20233;-96
2023/04/27 02:30:08;;;;;;;6.65;5.13;;;7.80;94.90;;;;;;4963624;29;20295;-96
2023/04/27 02:32:34;;;;;;;7.72;6.35;;;7.80;95.10;;;;;;4961349;29;20216;-96
2023/04/27 02:35:00;;;;;;;10.48;6.03;;;7.70;95.00;;;;;;4958319;29;20694;-95
2023/04/27 02:37:26;;;;;;;7.00;5.22;;;7.70;95.30;;;;;;4957721;29;20178;-96
2023/04/27 02:39:52;;;;;;;7.40;6.17;;;7.70;95.20;;;;;;4957869;29;20200;-96
2023/04/27 02:42:21;;;;;;;6.03;5.43;;;7.70;95.20;;;;;;4959552;29;20506;-96
2023/04/27 02:44:47;;;;;;;8.43;5.82;;;7.60;95.50;;;;;;4961248;29;20561;-96
2023/04/27 02:47:13;;;;;;;9.53;6.10;;;7.60;95.50;;;;;;4958133;29;20192;-95
2023/04/27 02:49:39;;;;;;;9.07;5.80;;;7.50;95.40;;;;;;4957880;29;20459;-96
2023/04/27 02:52:05;;;;;;;7.80;5.90;;;7.50;95.30;;;;;;4964480;29;20471;-96
2023/04/27 02:54:31;;;;;;;7.93;5.80;;;7.40;95.60;;;;;;4964508;29;20518;-95
2023/04/27 02:56:57;;;;;;;7.10;6.00;;;7.40;95.60;;;;;;4969272;29;20177;-96
2023/04/27 02:59:23;;;;;;;7.40;5.70;;;7.30;95.80;;;;;;4958996;29;20193;-95
2023/04/27 03:01:48;;;;;;;7.70;5.60;;;7.30;95.90;;;;;;4957331;29;20450;-96
2023/04/27 03:04:15;;;;;;;11.00;6.33;;;7.30;95.70;;;;;;4964139;29;20188;-95
2023/04/27 03:06:41;;;;;;;9.30;6.75;;;7.30;96.10;;;;;;4958515;29;20324;-96
2023/04/27 03:09:09;;;;;;;10.80;6.67;;;7.20;95.60;;;;;;4957014;29;20189;-95
2023/04/27 03:11:35;;;;;;;8.93;6.65;;;7.20;95.90;;;;;;4959091;29;20471;-96
2023/04/27 03:14:01;;;;;;;9.73;6.43;;;7.20;95.60;;;;;;4957278;29;20233;-95
2023/04/27 03:16:27;;;;;;;8.13;6.45;;;7.10;95.80;;;;;;4956167;28;20205;-95
2023/04/27 03:18:52;;;;;;;8.60;7.20;;;7.20;95.90;;;;;;4956894;29;20200;-96
2023/04/27 03:21:18;;;;;;;10.63;6.40;;;7.30;96.10;;;;;;4956964;29;20462;-96
2023/04/27 03:23:44;;;;;;;9.83;7.03;;;7.30;96.30;;;;;;4956842;29;20665;-96
2023/04/27 03:26:12;;;;;;;7.73;6.30;;;7.30;96.20;;;;;;4962041;29;20450;-95
2023/04/27 03:28:39;;;;;;;9.90;6.60;;;7.40;96.30;;;;;;4957020;29;20192;-95
2023/04/27 03:31:09;;;;;;;8.65;5.88;;;7.40;96.20;;;;;;4972185;29;20185;-96
2023/04/27 03:33:36;;;;;;;7.82;6.45;;;7.40;96.40;;;;;;4962157;29;20236;-95
2023/04/27 03:36:03;;;;;;;8.90;6.65;;;7.40;96.60;;;;;;4956470;29;20197;-95
2023/04/27 03:38:29;;;;;;;6.80;6.10;;;7.40;96.60;;;;;;4956112;29;20188;-96
2023/04/27 03:40:55;;;;;;;8.60;7.15;;;7.40;96.80;;;;;;4957473;29;20203;-95
2023/04/27 03:43:22;;;;;;;8.27;7.47;;;7.40;97.20;;;;;;4959076;29;20236;-96
2023/04/27 03:45:48;;;;;;;7.20;6.10;;;7.40;97.30;;;;;;4954459;29;20475;-95
2023/04/27 03:48:14;;;;;;;8.73;5.70;;;7.40;97.00;;;;;;4970585;28;20220;-96
2023/04/27 03:50:41;;;;;;;10.52;6.35;;;7.40;97.10;;;;;;4954791;29;20457;-95
2023/04/27 03:53:07;;;;;;;8.25;6.00;;;7.40;97.10;;;;;;4954732;29;20232;-96
2023/04/27 03:55:33;;;;;;;11.45;7.40;;;7.40;97.20;;;;;;4964534;29;20217;-96
2023/04/27 03:57:59;;;;;;;9.30;6.63;;;7.40;97.50;;;;;;4963853;28;20264;-94
2023/04/27 04:00:25;;;;;;;8.45;6.07;;;7.40;97.50;;;;;;4984031;28;20462;-95
2023/04/27 04:02:51;;;;;;;7.57;6.35;;;7.70;99.90;;;;;;4978785;28;20184;-95
2023/04/27 04:05:17;;;;;;;7.77;6.97;;;8.10;99.90;;;;;;4980803;28;20204;-96
2023/04/27 04:07:43;;;;;;;10.20;7.88;;;8.10;97.90;;;;;;4975831;28;20271;-96
2023/04/27 04:10:09;;;;;;;8.47;6.67;;;7.90;97.50;;;;;;4975252;28;20692;-95
2023/04/27 04:12:35;;;;;;;8.57;6.38;;;7.70;97.40;;;;;;4975215;28;20502;-94
2023/04/27 04:15:02;;;;;;;9.23;7.00;;;7.60;97.20;;;;;;4978147;28;20209;-96
2023/04/27 04:17:28;;;;;;;13.40;7.15;;;7.60;97.40;;;;;;4974916;28;20476;-96
2023/04/27 04:19:54;;;;;;;10.17;6.83;;;7.60;97.20;;;;;;4974250;28;20674;-96
2023/04/27 04:22:20;;;;;;;9.47;6.60;;;7.60;97.40;;;;;;4975745;28;20191;-96
2023/04/27 04:24:49;;;;;;;10.00;6.38;;;7.60;97.40;;;;;;4966199;29;20438;-96
2023/04/27 04:27:15;;;;;;;7.75;6.60;;;7.70;97.40;;;;;;4969872;28;20189;-95
2023/04/27 04:29:41;;;;;;;8.95;7.50;;;7.70;97.60;;;;;;4974915;28;20209;-95
2023/04/27 04:32:08;;;;;;;9.20;6.25;;;7.80;97.50;;;;;;4971985;28;20220;-94
2023/04/27 04:34:35;;;;;;;7.55;6.78;;;7.80;97.60;;;;;;4973325;28;20575;-96
2023/04/27 04:37:00;;;;;;;8.50;6.80;;;7.90;97.70;;;;;;4975160;28;20579;-96
2023/04/27 04:39:30;;;;;;;7.97;6.60;;;7.90;97.70;;;;;;4974879;28;20236;-95
2023/04/27 04:41:56;;;;;;;9.50;6.78;;;8.00;97.80;;;;;;4973200;28;20184;-95
2023/04/27 04:44:22;;;;;;;10.75;6.25;;;8.00;97.90;;;;;;4959720;28;20279;-94
2023/04/27 04:46:48;;;;;;;7.80;6.30;;;8.10;98.00;;;;;;4970328;28;20211;-92
2023/04/27 04:49:14;;;;;;;9.50;7.18;;;8.20;98.20;;;;;;4972016;28;20177;-96
2023/04/27 04:51:44;;;;;;;8.97;6.40;;;8.30;98.50;;;;;;4957308;28;20533;-95
2023/04/27 04:54:11;;;;;;;9.63;6.50;;;8.40;98.50;;;;;;4985230;28;20248;-95
2023/04/27 04:56:37;;;;;;;10.50;7.22;;;8.40;98.40;;;;;;4967697;28;20188;-95
2023/04/27 04:59:04;;;;;;;10.97;7.03;;;8.50;99.00;;;;;;4975855;28;20197;-96
2023/04/27 05:01:30;;;;;;;10.95;7.65;;;8.50;99.20;;;;;;4971138;28;20442;-96
2023/04/27 05:03:56;;;;;;;16.57;10.47;;;8.50;99.10;;;;;;4968116;28;20197;-94
2023/04/27 05:06:21;;;;;;;10.80;8.60;;;8.40;98.90;;;;;;4965760;28;20454;-94
2023/04/27 05:08:47;;;;;;;11.90;8.43;;;8.30;98.90;;;;;;4970191;28;20195;-94
2023/04/27 05:11:16;;;;;;;13.23;7.83;;;8.20;99.10;;;;;;4978017;28;20247;-96
2023/04/27 05:13:41;;;;;;;7.82;7.03;;;8.10;99.40;;;;;;4957824;28;20457;-96
2023/04/27 05:16:07;;;;;;;8.17;7.00;;;8.10;99.30;;;;;;4966727;28;20302;-95
2023/04/27 05:18:34;;;;;;;8.85;7.50;;;8.10;99.80;;;;;;4970348;28;20227;-96
2023/04/27 05:21:01;;;;;;;9.52;6.60;;;8.20;99.90;;;;;;4973299;28;20208;-96
2023/04/27 05:23:27;;;;;;;8.55;7.57;;;8.20;99.90;;;;;;4982301;28;20197;-96
2023/04/27 05:25:53;;;;;;;9.15;7.10;;;8.20;99.90;;;;;;4976915;28;20236;-94
2023/04/27 05:28:19;;;;;;;9.53;8.17;;;8.20;99.90;;;;;;4970923;28;20192;-94
2023/04/27 05:30:45;;;;;;;8.75;7.85;;;8.20;99.90;;;;;;4969523;28;20459;-94
2023/04/27 05:33:11;;;;;;;10.00;7.00;;;8.30;99.90;;;;;;4972301;28;20187;-93
2023/04/27 05:35:37;;;;;;;10.10;7.55;;;8.30;99.90;;;;;;4957783;28;20201;-94
2023/04/27 05:38:03;;;;;;;7.90;6.93;;;8.30;99.90;;;;;;4960001;28;20244;-95
2023/04/27 05:40:28;;;;;;;10.57;7.50;;;8.30;99.90;;;;;;4966715;28;20240;-95
2023/04/27 05:42:55;;;;;;;10.63;7.87;;;8.30;99.90;;;;;;4958717;29;20272;-95
2023/04/27 05:45:21;;;;;;;9.68;7.43;;;8.30;99.90;;;;;;4968360;28;20467;-96
2023/04/27 05:47:46;;;;;;;9.37;8.27;;;8.40;99.90;;;;;;4974102;28;20559;-95
2023/04/27 05:50:13;;;;;;;11.23;6.90;;;8.50;99.90;;;;;;4976588;28;20964;-96
2023/04/27 05:52:39;;;;;;;12.07;7.70;;;8.60;99.90;;;;;;4977830;28;20513;-95
2023/04/27 05:55:07;;;;;;;8.30;7.25;;;8.70;99.90;;;;;;4972919;28;20208;-96
2023/04/27 05:57:32;;;;;;;11.57;7.55;;;8.70;99.90;;;;;;4973245;28;20185;-95
2023/04/27 05:59:59;;;;;;;15.03;7.83;;;8.80;99.90;;;;;;4973339;28;20284;-95
2023/04/27 06:02:25;;;;;;;11.27;7.95;;;8.90;99.90;;;;;;4971836;28;20462;-95
2023/04/27 06:04:51;;;;;;;8.93;7.27;;;9.00;99.90;;;;;;4977689;28;20239;-95
2023/04/27 06:07:18;;;;;;;9.20;8.30;;;9.10;99.90;;;;;;4964411;28;20438;-96
2023/04/27 06:09:44;;;;;;;8.32;7.45;;;9.20;99.90;;;;;;4964043;28;20215;-96
2023/04/27 06:12:10;;;;;;;11.20;8.40;;;9.20;99.90;;;;;;4967495;28;20217;-95
2023/04/27 06:14:37;;;;;;;16.13;9.70;;;9.30;99.90;;;;;;4962182;28;20471;-95
2023/04/27 06:17:04;;;;;;;15.52;10.50;;;9.40;99.90;;;;;;4965216;28;20978;-96
2023/04/27 06:19:30;;;;;;;10.63;8.60;;;9.50;99.90;;;;;;4978004;28;20192;-95
2023/04/27 06:21:56;;;;;;;10.15;8.15;;;9.60;99.90;;;;;;4967964;28;20550;-96
2023/04/27 06:24:22;;;;;;;7.27;6.50;;;9.70;99.90;;;;;;4970927;28;20204;-96
2023/04/27 06:26:49;;;;;;;13.70;7.90;;;10.00;99.90;;;;;;4961803;28;20435;-96
2023/04/27 06:29:15;;;;;;;11.25;7.50;;;10.20;99.90;;;;;;4969788;28;20512;-95
2023/04/27 06:31:43;;;;;;;8.55;6.85;;;10.40;99.90;;;;;;4973142;28;20216;-96
2023/04/27 06:34:12;;;;;;;9.30;8.27;;;10.60;99.90;;;;;;4959171;28;20278;-95
2023/04/27 06:36:38;;;;;;;10.75;6.78;;;10.80;99.90;;;;;;4978871;28;20180;-95
2023/04/27 06:39:03;;;;;;;8.60;7.50;;;10.90;99.90;;;;;;4965430;28;20189;-96
2023/04/27 06:41:29;;;;;;;8.43;7.03;;;11.00;99.90;;;;;;4970742;28;20276;-96
2023/04/27 06:43:55;;;;;;;8.73;7.63;;;11.20;99.90;;;;;;4970157;28;20505;-96
2023/04/27 06:46:21;;;;;;;8.30;5.73;;;11.30;99.90;;;;;;4972240;28;20456;-95
2023/04/27 06:48:48;;;;;;;7.10;5.90;;;11.50;99.90;;;;;;4970988;28;20481;-96
2023/04/27 06:51:14;;;;;;;8.50;6.60;;;11.70;99.90;;;;;;4967127;28;20484;-96
2023/04/27 06:53:41;;;;;;;6.13;5.40;;;11.80;99.90;;;;;;4973924;28;20241;-96
2023/04/27 06:56:11;;;;;;;7.32;4.05;;;12.00;99.90;;;;;;4987578;28;20204;-96
2023/04/27 06:58:46;;;;;;;4.55;3.67;;;12.20;99.60;;;;;;4982743;28;20182;-96
2023/04/27 07:01:17;;;;;;;6.55;3.40;;;12.50;97.70;;;;;;4982095;28;20212;-96
2023/04/27 07:03:42;;;;;;;8.32;4.10;;;12.70;97.30;;;;;;4991768;23;20258;-88
2023/04/27 07:06:08;;;;;;;10.03;4.50;;;12.90;96.10;;;;;;4974613;28;20196;-79
2023/04/27 07:08:33;;;;;;;7.60;3.20;;;13.10;95.80;;;;;;4973586;28;20188;-88
2023/04/27 07:10:59;;;;;;;5.63;3.60;;;13.30;95.60;;;;;;4978709;28;20193;-87
2023/04/27 07:13:25;;;;;;;6.70;3.67;;;13.40;95.20;;;;;;4986699;28;20191;-80
2023/04/27 07:15:56;;;;;;;4.83;3.60;;;13.60;95.10;;;;;;4978008;28;20743;-80
2023/04/27 07:18:22;;;;;;;4.40;3.07;;;13.70;94.50;;;;;;4987587;28;20195;-88
2023/04/27 07:20:48;;;;;;;6.90;3.80;;;13.80;93.80;;;;;;4986813;28;20440;-88
2023/04/27 07:23:14;;;;;;;5.37;3.73;;;13.90;93.40;;;;;;4989147;28;20876;-79
2023/04/27 07:25:39;;;;;;;4.67;3.77;;;14.00;92.70;;;;;;4977814;28;20211;-88
2023/04/27 07:28:05;;;;;;;4.10;3.70;;;14.10;92.80;;;;;;4982834;28;20213;-80
2023/04/27 07:30:35;;;;;;;4.20;3.70;;;14.10;92.70;;;;;;4983858;28;20231;-88
2023/04/27 07:33:00;;;;;;;6.13;3.73;;;14.20;92.60;;;;;;4978292;28;21010;-87
2023/04/27 07:35:26;;;;;;;5.23;3.40;;;14.30;92.80;;;;;;4993758;28;20653;-87
2023/04/27 07:37:52;;;;;;;6.90;4.53;;;14.40;92.10;;;;;;4993381;28;20191;-88
2023/04/27 07:40:18;;;;;;;4.93;3.40;;;14.50;91.80;;;;;;4981237;28;20446;-88
2023/04/27 07:42:45;;;;;;;5.80;3.03;;;14.60;92.30;;;;;;4976968;28;20612;-88
2023/04/27 07:45:11;;;;;;;9.83;3.37;;;14.70;91.60;;;;;;4980906;28;20486;-89
2023/04/27 07:47:37;;;;;;;6.63;3.30;;;14.70;92.00;;;;;;4984191;28;20414;-80
2023/04/27 07:50:06;;;;;;;5.37;3.27;;;14.80;91.10;;;;;;4981346;28;20453;-88
2023/04/27 07:52:32;;;;;;;4.27;3.30;;;14.90;90.30;;;;;;4978564;28;20986;-89
2023/04/27 07:54:57;;;;;;;3.67;3.17;;;15.00;90.50;;;;;;4981327;28;20434;-80
2023/04/27 07:57:23;;;;;;;3.60;2.80;;;15.10;90.30;;;;;;4986957;28;20707;-88
2023/04/27 07:59:49;;;;;;;5.70;3.17;;;15.10;90.20;;;;;;4975123;28;20215;-89
2023/04/27 08:02:15;;;;;;;2.90;2.70;;;15.20;89.00;;;;;;4984853;28;20508;-88
2023/04/27 08:04:40;;;;;;;8.63;3.63;;;15.20;89.60;;;;;;4996046;28;20243;-88
2023/04/27 08:07:06;;;;;;;6.83;4.00;;;15.20;88.60;;;;;;4982027;28;20429;-80
2023/04/27 08:09:32;;;;;;;5.30;3.67;;;15.30;89.80;;;;;;4981678;28;20601;-87
2023/04/27 08:11:57;;;;;;;3.40;3.07;;;15.30;89.30;;;;;;4979798;28;20305;-80
2023/04/27 08:14:23;;;;;;;6.33;3.50;;;15.40;88.60;;;;;;4980103;28;20664;-89
2023/04/27 08:16:50;;;;;;;6.70;3.80;;;15.50;89.00;;;;;;4978842;28;20674;-88
2023/04/27 08:19:17;;;;;;;5.60;4.03;;;15.60;88.80;;;;;;4974495;28;20291;-88
2023/04/27 08:21:43;;;;;;;6.83;3.70;;;15.80;88.60;;;;;;4981609;28;20466;-90
2023/04/27 08:24:08;;;;;;;6.33;4.00;;;15.90;88.00;;;;;;4968261;28;20441;-80
2023/04/27 08:26:34;;;;;;;5.90;4.40;;;15.80;88.70;;;;;;4976137;28;20835;-80
2023/04/27 08:29:01;;;;;;;4.87;3.83;;;15.90;88.50;;;;;;4986595;28;20790;-80
2023/04/27 08:31:27;;;;;;;7.90;3.90;;;16.00;87.50;;;;;;4984150;28;20574;-80
2023/04/27 08:33:53;;;;;;;4.00;3.60;;;15.80;87.60;;;;;;4987532;28;20440;-90
2023/04/27 08:36:23;;;;;;;6.00;4.00;;;15.80;87.30;;;;;;4979975;28;20476;-88
2023/04/27 08:38:52;;;;;;;5.47;3.60;;;15.90;86.30;;;;;;4983751;28;21427;-80
2023/04/27 08:41:20;;;;;;;6.23;4.50;;;16.00;86.20;;;;;;4985699;28;21397;-80
2023/04/27 08:43:48;;;;;;;6.90;4.03;;;16.10;88.20;;;;;;4978596;28;20485;-80
2023/04/27 08:46:18;;;;;;;4.80;3.20;;;16.30;87.10;;;;;;4985024;28;20456;-89
2023/04/27 08:48:43;;;;;;;5.23;3.43;;;16.50;86.60;;;;;;4977375;28;20506;-80
2023/04/27 08:51:11;;;;;;;6.17;3.80;;;16.50;84.50;;;;;;4988895;28;21077;-81
2023/04/27 08:53:49;;;;;;;7.07;3.30;;;16.60;85.20;;;;;;4987153;28;20191;-88
2023/04/27 08:56:15;;;;;;;5.87;3.80;;;16.70;85.30;;;;;;4971771;28;20543;-81
2023/04/27 08:58:41;;;;;;;5.10;3.80;;;16.80;84.50;;;;;;4981278;28;21733;-81
2023/04/27 09:01:07;;;;;;;5.40;4.17;;;16.70;83.60;;;;;;4973351;28;20457;-80
2023/04/27 09:03:33;;;;;;;4.13;3.60;;;16.60;84.00;;;;;;4981611;28;20242;-80
2023/04/27 09:06:00;;;;;;;5.53;3.60;;;16.70;83.90;;;;;;4979059;28;20532;-80
2023/04/27 09:08:26;;;;;;;11.43;5.07;;;16.80;84.40;;;;;;4979500;28;20504;-81
2023/04/27 09:10:53;;;;;;;6.70;4.00;;;16.90;82.80;;;;;;4986966;28;20485;-89
2023/04/27 09:13:19;;;;;;;5.20;3.80;;;16.80;82.10;;;;;;4974741;28;20196;-90
2023/04/27 09:15:47;;;;;;;4.40;3.30;;;16.70;83.60;;;;;;4981848;28;20512;-89
2023/04/27 09:18:16;;;;;;;5.90;3.73;;;16.70;83.60;;;;;;4974340;28;20429;-89
2023/04/27 09:20:51;;;;;;;3.83;3.37;;;16.60;83.40;;;;;;4978411;28;20516;-89
2023/04/27 09:23:45;;;;;;;5.53;3.60;;;16.50;82.10;;;;;;4987328;28;20523;-90
2023/04/27 09:26:26;;;;;;;4.90;3.13;;;16.40;82.80;;;;;;4985824;28;21045;-89
2023/04/27 09:28:55;;;;;;;6.40;3.60;;;16.40;83.30;;;;;;4985336;28;20444;-89
2023/04/27 09:31:29;;;;;;;5.27;3.33;;;16.50;83.70;;;;;;4978045;28;20560;-90
2023/04/27 09:33:56;;;;;;;6.53;3.80;;;16.50;83.30;;;;;;4984529;28;20443;-80
2023/04/27 09:36:22;;;;;;;8.23;3.93;;;16.50;82.40;;;;;;4987176;28;20530;-89
2023/04/27 09:38:50;;;;;;;4.40;4.00;;;16.50;81.70;;;;;;4983392;28;20438;-90
2023/04/27 09:41:16;;;;;;;5.93;3.73;;;16.40;82.30;;;;;;4974814;28;20533;-89
2023/04/27 09:43:44;;;;;;;7.00;3.43;;;16.40;82.60;;;;;;4975418;28;20441;-89
2023/04/27 09:46:11;;;;;;;4.43;3.23;;;16.30;83.80;;;;;;4976505;28;20516;-81
2023/04/27 09:48:38;;;;;;;9.93;6.57;;;16.30;83.30;;;;;;4985652;28;20772;-80
2023/04/27 09:51:04;;;;;;;8.33;5.50;;;16.50;83.90;;;;;;4992143;28;20519;-88
2023/04/27 09:53:37;;;;;;;5.10;2.93;;;16.80;84.20;;;;;;4979053;28;20961;-81
2023/04/27 09:56:28;;;;;;;3.80;3.20;;;17.10;82.90;;;;;;4978326;28;20553;-89
2023/04/27 09:59:00;;;;;;;3.90;3.17;;;17.30;81.90;;;;;;4975516;28;20959;-81
2023/04/27 10:01:50;;;;;;;5.87;4.60;;;17.30;82.10;;;;;;4982772;28;20525;-79
2023/04/27 10:04:34;;;;;;;5.20;3.63;;;17.40;80.20;;;;;;4974165;28;21212;-79
2023/04/27 10:07:21;;;;;;;4.27;3.50;;;17.40;80.30;;;;;;4978757;28;20540;-79
2023/04/27 10:09:50;;;;;;;3.73;3.43;;;17.30;79.40;;;;;;4971964;28;20453;-88
2023/04/27 10:12:20;;;;;;;16.70;9.43;;;17.20;79.00;;;;;;4975469;28;20900;-78
2023/04/27 10:14:59;;;;;;;5.50;3.80;;;17.20;80.00;;;;;;4982344;28;20441;-79
2023/04/27 10:17:33;;;;;;;4.90;3.20;;;17.10;79.60;;;;;;4983309;28;20849;-79
2023/04/27 10:20:00;;;;;;;4.50;3.20;;;17.10;80.00;;;;;;4980085;28;20461;-79
2023/04/27 10:22:42;;;;;;;5.10;3.53;;;17.20;80.90;;;;;;4991208;28;20472;-88
2023/04/27 10:25:26;;;;;;;4.33;3.00;;;17.20;81.40;;;;;;4983498;28;20460;-89
2023/04/27 10:28:00;;;;;;;4.57;3.60;;;17.30;80.60;;;;;;4994564;28;21044;-79
2023/04/27 10:30:35;;;;;;;3.27;2.97;;;17.20;80.70;;;;;;4970670;28;20438;-79
2023/04/27 10:33:11;;;;;;;4.87;3.87;;;17.10;79.70;;;;;;4974213;28;20512;-86
2023/04/27 10:35:39;;;;;;;5.53;3.63;;;17.00;81.50;;;;;;4981370;28;20729;-79
2023/04/27 10:38:09;;;;;;;4.87;3.17;;;17.10;80.80;;;;;;4986426;28;20444;-79
2023/04/27 10:40:36;;;;;;;6.50;3.80;;;17.20;80.50;;;;;;4986928;28;20528;-87
2023/04/27 10:43:13;;;;;;;5.37;3.30;;;17.20;80.10;;;;;;4978654;28;20429;-79
2023/04/27 10:45:40;;;;;;;4.53;3.00;;;17.20;80.00;;;;;;4971328;28;20940;-87
2023/04/27 10:48:06;;;;;;;7.30;3.50;;;17.30;78.90;;;;;;4973167;28;20796;-78
2023/04/27 10:50:33;;;;;;;4.73;2.87;;;17.40;80.10;;;;;;4984355;28;20913;-79
2023/04/27 10:53:05;;;;;;;3.03;2.33;;;17.60;79.80;;;;;;4988306;28;20500;-88
2023/04/27 10:55:31;;;;;;;4.63;3.00;;;17.80;79.80;;;;;;4982660;28;20464;-88
2023/04/27 10:57:57;;;;;;;3.67;3.27;;;17.90;78.70;;;;;;4982530;28;20958;-79
2023/04/27 11:00:27;;;;;;;5.43;3.23;;;18.00;77.90;;;;;;4979728;28;21025;-79
2023/04/27 11:02:54;;;;;;;5.63;3.47;;;18.10;78.90;;;;;;4979360;28;20454;-79
2023/04/27 11:05:24;;;;;;;4.23;3.43;;;18.10;76.70;;;;;;4980993;28;20450;-88
2023/04/27 11:07:50;;;;;;;4.97;3.17;;;18.00;76.20;;;;;;4975795;28;20513;-79
2023/04/27 11:10:17;;;;;;;6.27;3.60;;;18.00;77.60;;;;;;4987376;28;20433;-88
2023/04/27 11:12:44;;;;;;;4.10;3.30;;;18.10;77.30;;;;;;4984451;28;20563;-88
2023/04/27 11:15:10;;;;;;;3.70;3.33;;;18.20;76.20;;;;;;4984063;28;20455;-79
2023/04/27 11:17:36;;;;;;;4.00;2.90;;;18.30;77.00;;;;;;4990643;28;20410;-88
2023/04/27 11:20:04;;;;;;;2.57;2.37;;;18.40;75.00;;;;;;4987124;28;20815;-88
2023/04/27 11:22:30;;;;;;;3.73;2.77;;;18.50;75.30;;;;;;4993307;28;20188;-88
2023/04/27 11:24:56;;;;;;;5.60;5.00;;;18.60;76.00;;;;;;4991732;28;20969;-88
2023/04/27 11:27:22;;;;;;;3.93;3.33;;;18.70;77.00;;;;;;4989156;28;20500;-79
2023/04/27 11:29:48;;;;;;;3.20;2.90;;;18.80;76.70;;;;;;4989621;28;20521;-88
2023/04/27 11:32:21;;;;;;;4.70;2.80;;;18.90;76.00;;;;;;4993071;28;20569;-87
2023/04/27 11:34:52;;;;;;;3.30;3.00;;;19.00;75.70;;;;;;4989799;28;20211;-79
2023/04/27 11:37:23;;;;;;;10.93;3.00;;;19.10;75.30;;;;;;4972977;28;20437;-80
2023/04/27 11:39:49;;;;;;;4.97;3.00;;;19.10;75.00;;;;;;4977964;28;20422;-79
2023/04/27 11:42:22;;;;;;;3.63;3.00;;;19.10;74.40;;;;;;4981791;28;20945;-87
2023/04/27 11:45:01;;;;;;;3.93;3.10;;;19.00;73.90;;;;;;4984443;28;20194;-79
2023/04/27 11:47:31;;;;;;;3.93;2.67;;;18.80;74.10;;;;;;4979534;28;20430;-88
2023/04/27 11:49:59;;;;;;;3.13;2.90;;;18.60;73.10;;;;;;4989685;28;20463;-79
2023/04/27 11:52:29;;;;;;;4.77;3.07;;;18.50;75.40;;;;;;4985132;28;20489;-89
2023/04/27 11:54:55;;;;;;;5.70;2.80;;;18.60;74.10;;;;;;4981022;28;20451;-78
2023/04/27 11:57:30;;;;;;;4.90;3.00;;;18.60;72.90;;;;;;4989344;28;20425;-80
2023/04/27 11:59:58;;;;;;;3.27;2.60;;;18.60;73.10;;;;;;4984092;28;20841;-87
2023/04/27 12:02:25;;;;;;;5.20;3.40;;;18.60;74.10;;;;;;4989180;28;20802;-88
2023/04/27 12:04:51;;;;;;;3.80;2.90;;;18.60;73.40;;;;;;4983734;28;20557;-83
2023/04/27 12:07:18;;;;;;;5.37;2.83;;;18.50;72.80;;;;;;4973098;28;20736;-79
2023/04/27 12:09:44;;;;;;;4.90;2.93;;;18.50;73.60;;;;;;4980216;28;20525;-89
2023/04/27 12:12:11;;;;;;;3.40;2.60;;;18.40;73.60;;;;;;4981842;28;20998;-87
2023/04/27 12:14:37;;;;;;;3.80;2.70;;;18.40;74.20;;;;;;4981979;28;20541;-79
2023/04/27 12:17:03;;;;;;;4.53;2.77;;;18.40;74.40;;;;;;4991456;28;20873;-80
2023/04/27 12:19:30;;;;;;;4.50;2.53;;;18.50;75.00;;;;;;4985531;28;20543;-89
2023/04/27 12:21:57;;;;;;;5.80;2.80;;;18.60;75.00;;;;;;4989218;28;20561;-79
2023/04/27 12:24:22;;;;;;;4.73;3.00;;;18.70;75.10;;;;;;4991676;28;20814;-80
2023/04/27 12:26:48;;;;;;;5.47;3.23;;;18.70;72.80;;;;;;4990295;28;20454;-88
2023/04/27 12:29:14;;;;;;;2.90;2.57;;;18.70;73.20;;;;;;5005917;28;20224;-80
2023/04/27 12:31:41;;;;;;;4.73;2.63;;;18.70;74.10;;;;;;4990169;28;20565;-79
2023/04/27 12:34:06;;;;;;;4.67;3.70;;;18.80;73.00;;;;;;4984444;28;20453;-81
2023/04/27 12:36:32;;;;;;;5.00;3.30;;;18.70;72.50;;;;;;4985757;28;20462;-88
2023/04/27 12:39:10;;;;;;;2.77;2.47;;;18.80;74.40;;;;;;4984213;28;20217;-89
2023/04/27 12:41:36;;;;;;;7.10;3.23;;;18.80;72.30;;;;;;4979235;28;20214;-79
2023/04/27 12:44:02;;;;;;;3.10;2.67;;;18.70;73.60;;;;;;4986733;28;20442;-88
2023/04/27 12:46:27;;;;;;;2.73;2.53;;;18.80;72.60;;;;;;4982314;28;20264;-89
2023/04/27 12:48:55;;;;;;;3.27;2.90;;;18.80;73.40;;;;;;4979124;28;20185;-80
2023/04/27 12:51:22;;;;;;;4.03;2.40;;;18.80;73.70;;;;;;4997239;28;20209;-80